createdAt,value
2023-02-11T00:00:35.294Z,0.00
2023-02-11T00:01:35.286Z,0.00
2023-02-11T00:02:35.195Z,0.00
2023-02-11T00:03:35.420Z,0.00
2023-02-11T00:04:35.276Z,0.00
2023-02-11T00:05:35.333Z,0.00
2023-02-11T00:06:35.324Z,0.00
2023-02-11T00:07:35.284Z,0.00
2023-02-11T00:08:35.312Z,0.00
2023-02-11T00:09:35.110Z,0.00
2023-02-11T00:10:35.309Z,0.00
2023-02-11T00:11:35.168Z,0.00
2023-02-11T00:12:35.181Z,0.00
2023-02-11T00:13:35.208Z,0.00
2023-02-11T00:14:35.289Z,0.00
2023-02-11T00:15:35.237Z,0.00
2023-02-11T00:16:35.236Z,0.00
2023-02-11T00:17:35.139Z,0.00
2023-02-11T00:18:35.137Z,0.00
2023-02-11T00:19:35.147Z,0.00
2023-02-11T00:20:35.262Z,0.00
2023-02-11T00:21:34.981Z,0.00
2023-02-11T00:22:35.043Z,0.00
2023-02-11T00:23:35.040Z,0.00
2023-02-11T00:24:35.010Z,0.00
2023-02-11T00:25:34.932Z,0.00
2023-02-11T00:26:35.057Z,0.00
2023-02-11T00:27:35.022Z,0.00
2023-02-11T00:28:35.036Z,0.00
2023-02-11T00:29:34.860Z,0.00
2023-02-11T00:30:35.144Z,0.00
2023-02-11T00:31:35.241Z,0.00
2023-02-11T00:32:35.001Z,0.00
2023-02-11T00:33:34.863Z,0.00
2023-02-11T00:34:34.944Z,0.00
2023-02-11T00:35:34.992Z,0.00
2023-02-11T00:36:34.892Z,0.00
2023-02-11T00:37:34.939Z,0.00
2023-02-11T00:38:34.912Z,0.00
2023-02-11T00:39:35.018Z,0.00
2023-02-11T00:40:34.868Z,0.00
2023-02-11T00:41:34.967Z,0.00
2023-02-11T00:42:34.947Z,0.00
2023-02-11T00:43:34.927Z,0.00
2023-02-11T00:44:34.920Z,0.00
2023-02-11T00:45:34.900Z,0.00
2023-02-11T00:46:34.978Z,0.00
2023-02-11T00:47:34.893Z,0.00
2023-02-11T00:48:34.885Z,0.00
2023-02-11T00:49:34.742Z,0.00
2023-02-11T00:50:34.845Z,0.00
2023-02-11T00:51:34.826Z,0.00
2023-02-11T00:52:34.794Z,0.00
2023-02-11T00:53:34.789Z,0.00
2023-02-11T00:54:34.908Z,0.00
2023-02-11T00:55:34.697Z,0.00
2023-02-11T00:56:34.679Z,0.00
2023-02-11T00:57:34.669Z,0.00
2023-02-11T00:58:34.682Z,0.00
2023-02-11T00:59:34.701Z,0.00
2023-02-11T01:00:34.599Z,0.00
2023-02-11T01:01:34.798Z,0.00
2023-02-11T01:02:34.658Z,0.00
2023-02-11T01:03:34.749Z,0.00
2023-02-11T01:04:34.673Z,0.00
2023-02-11T01:05:34.799Z,0.00
2023-02-11T01:06:34.683Z,0.00
2023-02-11T01:07:34.699Z,0.00
2023-02-11T01:08:34.658Z,0.00
2023-02-11T01:09:34.676Z,0.00
2023-02-11T01:10:34.704Z,0.00
2023-02-11T01:11:34.739Z,0.00
2023-02-11T01:12:36.472Z,0.00
2023-02-11T01:13:34.570Z,0.00
2023-02-11T01:14:34.569Z,0.00
2023-02-11T01:15:34.613Z,0.00
2023-02-11T01:16:34.664Z,0.00
2023-02-11T01:17:34.599Z,0.00
2023-02-11T01:18:34.588Z,0.00
2023-02-11T01:19:34.597Z,0.00
2023-02-11T01:20:34.514Z,0.00
2023-02-11T01:21:34.588Z,0.00
2023-02-11T01:22:34.501Z,0.00
2023-02-11T01:23:34.498Z,0.00
2023-02-11T01:24:34.316Z,0.00
2023-02-11T01:25:34.471Z,0.00
2023-02-11T01:26:34.440Z,0.00
2023-02-11T01:27:34.582Z,0.00
2023-02-11T01:28:34.567Z,0.00
2023-02-11T01:29:34.475Z,0.00
2023-02-11T01:30:34.466Z,0.00
2023-02-11T01:31:34.388Z,0.00
2023-02-11T01:32:34.490Z,0.00
2023-02-11T01:33:34.494Z,0.00
2023-02-11T01:34:34.414Z,0.00
2023-02-11T01:35:34.405Z,0.00
2023-02-11T01:36:34.381Z,0.00
2023-02-11T01:37:34.361Z,0.00
2023-02-11T01:38:34.429Z,0.00
2023-02-11T01:39:34.426Z,0.00
2023-02-11T01:40:34.351Z,0.00
2023-02-11T01:41:34.378Z,0.00
2023-02-11T01:42:34.309Z,0.00
2023-02-11T01:43:34.295Z,0.00
2023-02-11T01:44:34.367Z,0.00
2023-02-11T01:45:34.277Z,0.00
2023-02-11T01:46:34.290Z,0.00
2023-02-11T01:47:34.254Z,0.00
2023-02-11T01:48:34.052Z,0.00
2023-02-11T01:49:34.188Z,0.00
2023-02-11T01:50:34.036Z,0.00
2023-02-11T01:51:34.301Z,0.00
2023-02-11T01:52:34.229Z,0.00
2023-02-11T01:53:34.222Z,0.00
2023-02-11T01:54:34.220Z,0.00
2023-02-11T01:55:34.223Z,0.00
2023-02-11T01:56:34.306Z,0.00
2023-02-11T01:57:34.210Z,0.00
2023-02-11T01:58:34.196Z,0.00
2023-02-11T01:59:34.118Z,0.00
2023-02-11T02:00:34.134Z,0.00
2023-02-11T02:01:34.087Z,0.00
2023-02-11T02:02:34.245Z,0.00
2023-02-11T02:03:34.053Z,0.00
2023-02-11T02:04:34.007Z,0.00
2023-02-11T02:05:34.002Z,0.00
2023-02-11T02:06:33.995Z,0.00
2023-02-11T02:07:33.912Z,0.00
2023-02-11T02:08:34.002Z,0.00
2023-02-11T02:09:34.010Z,0.00
2023-02-11T02:10:34.006Z,0.00
2023-02-11T02:11:34.003Z,0.00
2023-02-11T02:12:34.009Z,0.00
2023-02-11T02:13:33.999Z,0.00
2023-02-11T02:14:33.791Z,0.00
2023-02-11T02:15:34.015Z,0.00
2023-02-11T02:16:34.069Z,0.00
2023-02-11T02:17:33.974Z,0.00
2023-02-11T02:18:33.901Z,0.00
2023-02-11T02:19:33.940Z,0.00
2023-02-11T02:20:33.923Z,0.00
2023-02-11T02:21:33.920Z,0.00
2023-02-11T02:22:33.687Z,0.00
2023-02-11T02:23:33.892Z,0.00
2023-02-11T02:24:33.893Z,0.00
2023-02-11T02:25:33.874Z,0.00
2023-02-11T02:26:33.853Z,0.00
2023-02-11T02:27:33.851Z,0.00
2023-02-11T02:28:33.860Z,0.00
2023-02-11T02:29:33.818Z,0.00
2023-02-11T02:30:33.823Z,0.00
2023-02-11T02:31:33.846Z,0.00
2023-02-11T02:32:33.789Z,0.00
2023-02-11T02:33:33.696Z,0.00
2023-02-11T02:34:33.695Z,0.00
2023-02-11T02:35:33.677Z,0.00
2023-02-11T02:36:33.567Z,0.00
2023-02-11T02:37:33.751Z,0.00
2023-02-11T02:38:33.747Z,0.00
2023-02-11T02:39:33.758Z,0.00
2023-02-11T02:40:33.777Z,0.00
2023-02-11T02:41:33.677Z,0.00
2023-02-11T02:42:33.666Z,0.00
2023-02-11T02:43:33.771Z,0.00
2023-02-11T02:44:33.653Z,0.00
2023-02-11T02:45:33.651Z,0.00
2023-02-11T02:46:33.767Z,0.00
2023-02-11T02:47:33.608Z,0.00
2023-02-11T02:48:33.618Z,0.00
2023-02-11T02:49:33.689Z,0.00
2023-02-11T02:50:33.628Z,0.00
2023-02-11T02:51:33.629Z,0.00
2023-02-11T02:52:33.622Z,0.00
2023-02-11T02:53:33.543Z,0.00
2023-02-11T02:54:33.600Z,0.00
2023-02-11T02:55:33.513Z,0.00
2023-02-11T02:56:33.499Z,0.00
2023-02-11T02:57:33.556Z,0.00
2023-02-11T02:58:33.538Z,0.00
2023-02-11T02:59:33.536Z,0.00
2023-02-11T03:00:33.393Z,0.00
2023-02-11T03:01:33.507Z,0.00
2023-02-11T03:02:33.470Z,0.00
2023-02-11T03:03:33.541Z,0.00
2023-02-11T03:04:33.552Z,0.00
2023-02-11T03:05:33.532Z,0.00
2023-02-11T03:06:33.512Z,0.00
2023-02-11T03:07:33.476Z,0.00
2023-02-11T03:08:33.385Z,0.00
2023-02-11T03:09:33.471Z,0.00
2023-02-11T03:10:33.493Z,0.00
2023-02-11T03:11:33.427Z,0.00
2023-02-11T03:12:33.456Z,0.00
2023-02-11T03:13:33.434Z,0.00
2023-02-11T03:14:33.425Z,0.00
2023-02-11T03:15:33.447Z,0.00
2023-02-11T03:16:33.477Z,0.00
2023-02-11T03:17:33.312Z,0.00
2023-02-11T03:18:33.326Z,0.00
2023-02-11T03:19:33.343Z,0.00
2023-02-11T03:20:33.383Z,0.00
2023-02-11T03:21:33.380Z,0.00
2023-02-11T03:22:33.373Z,0.00
2023-02-11T03:23:33.359Z,0.00
2023-02-11T03:24:33.236Z,0.00
2023-02-11T03:25:33.227Z,0.00
2023-02-11T03:26:33.323Z,0.00
2023-02-11T03:27:33.298Z,0.00
2023-02-11T03:28:33.319Z,0.00
2023-02-11T03:29:33.286Z,0.00
2023-02-11T03:30:33.272Z,0.00
2023-02-11T03:31:33.404Z,0.00
2023-02-11T03:32:33.175Z,0.00
2023-02-11T03:33:33.192Z,0.00
2023-02-11T03:34:33.192Z,0.00
2023-02-11T03:35:33.116Z,0.00
2023-02-11T03:36:33.210Z,0.00
2023-02-11T03:37:33.137Z,0.00
2023-02-11T03:38:33.000Z,0.00
2023-02-11T03:39:33.119Z,0.00
2023-02-11T03:40:33.113Z,0.00
2023-02-11T03:41:33.186Z,0.00
2023-02-11T03:42:33.184Z,0.00
2023-02-11T03:43:33.101Z,0.00
2023-02-11T03:44:33.153Z,0.00
2023-02-11T03:45:33.104Z,0.00
2023-02-11T03:46:33.080Z,0.00
2023-02-11T03:47:33.088Z,0.00
2023-02-11T03:48:32.995Z,0.00
2023-02-11T03:49:32.994Z,0.00
2023-02-11T03:50:32.988Z,0.00
2023-02-11T03:51:32.986Z,0.00
2023-02-11T03:52:33.058Z,0.00
2023-02-11T03:53:33.055Z,0.00
2023-02-11T03:54:32.965Z,0.00
2023-02-11T03:55:32.951Z,0.00
2023-02-11T03:56:32.935Z,0.00
2023-02-11T03:57:33.015Z,0.00
2023-02-11T03:58:32.931Z,0.00
2023-02-11T03:59:32.991Z,0.00
2023-02-11T04:00:32.872Z,0.00
2023-02-11T04:01:32.962Z,0.00
2023-02-11T04:02:32.895Z,0.00
2023-02-11T04:03:32.995Z,0.00
2023-02-11T04:04:32.922Z,0.00
2023-02-11T04:05:32.820Z,0.00
2023-02-11T04:06:32.824Z,0.00
2023-02-11T04:07:32.916Z,0.00
2023-02-11T04:08:32.767Z,0.00
2023-02-11T04:09:32.935Z,0.00
2023-02-11T04:10:32.928Z,0.00
2023-02-11T04:11:32.643Z,0.00
2023-02-11T04:12:32.637Z,0.00
2023-02-11T04:13:32.772Z,0.00
2023-02-11T04:14:32.764Z,0.00
2023-02-11T04:15:32.820Z,0.00
2023-02-11T04:16:32.804Z,0.00
2023-02-11T04:17:32.710Z,0.00
2023-02-11T04:18:32.705Z,0.00
2023-02-11T04:19:32.709Z,0.00
2023-02-11T04:20:32.710Z,0.00
2023-02-11T04:21:32.530Z,0.00
2023-02-11T04:22:32.722Z,0.00
2023-02-11T04:23:32.651Z,0.00
2023-02-11T04:24:32.615Z,0.00
2023-02-11T04:25:32.670Z,0.00
2023-02-11T04:26:32.571Z,0.00
2023-02-11T04:27:32.649Z,0.00
2023-02-11T04:28:32.600Z,0.00
2023-02-11T04:29:32.434Z,0.00
2023-02-11T04:30:32.555Z,0.00
2023-02-11T04:31:32.740Z,0.00
2023-02-11T04:32:32.635Z,0.00
2023-02-11T04:33:32.636Z,0.00
2023-02-11T04:34:32.643Z,0.00
2023-02-11T04:35:32.571Z,0.00
2023-02-11T04:36:32.479Z,0.00
2023-02-11T04:37:32.680Z,0.00
2023-02-11T04:38:32.606Z,0.00
2023-02-11T04:39:32.335Z,0.00
2023-02-11T04:40:32.505Z,0.00
2023-02-11T04:41:32.508Z,0.00
2023-02-11T04:42:32.612Z,0.00
2023-02-11T04:43:32.346Z,0.00
2023-02-11T04:44:32.474Z,0.00
2023-02-11T04:45:32.541Z,0.00
2023-02-11T04:46:32.542Z,0.00
2023-02-11T04:47:32.459Z,0.00
2023-02-11T04:48:32.537Z,0.00
2023-02-11T04:49:32.474Z,0.00
2023-02-11T04:50:32.416Z,0.00
2023-02-11T04:51:32.432Z,0.00
2023-02-11T04:52:32.439Z,0.00
2023-02-11T04:53:32.529Z,0.00
2023-02-11T04:54:32.372Z,0.00
2023-02-11T04:55:32.200Z,0.00
2023-02-11T04:56:32.354Z,0.00
2023-02-11T04:57:32.347Z,0.00
2023-02-11T04:58:32.293Z,0.00
2023-02-11T04:59:32.383Z,0.00
2023-02-11T05:00:32.198Z,0.00
2023-02-11T05:01:32.368Z,0.00
2023-02-11T05:02:32.353Z,0.00
2023-02-11T05:03:32.315Z,0.00
2023-02-11T05:04:32.399Z,0.00
2023-02-11T05:05:32.268Z,0.00
2023-02-11T05:06:32.313Z,0.00
2023-02-11T05:07:32.296Z,0.00
2023-02-11T05:08:32.184Z,0.00
2023-02-11T05:09:32.226Z,0.00
2023-02-11T05:10:32.028Z,0.00
2023-02-11T05:11:32.232Z,0.00
2023-02-11T05:12:32.231Z,0.00
2023-02-11T05:13:32.226Z,0.00
2023-02-11T05:14:32.301Z,0.00
2023-02-11T05:15:32.202Z,0.00
2023-02-11T05:16:32.254Z,0.00
2023-02-11T05:17:32.193Z,0.00
2023-02-11T05:18:32.198Z,0.00
2023-02-11T05:19:32.131Z,0.00
2023-02-11T05:20:32.224Z,0.00
2023-02-11T05:21:32.158Z,0.00
2023-02-11T05:22:32.100Z,0.00
2023-02-11T05:23:32.136Z,0.00
2023-02-11T05:24:31.901Z,0.00
2023-02-11T05:25:32.165Z,0.00
2023-02-11T05:26:32.109Z,0.00
2023-02-11T05:27:32.042Z,0.00
2023-02-11T05:28:32.109Z,0.00
2023-02-11T05:29:32.059Z,0.00
2023-02-11T05:30:32.211Z,0.00
2023-02-11T05:31:31.925Z,0.00
2023-02-11T05:32:31.925Z,0.00
2023-02-11T05:33:31.944Z,0.00
2023-02-11T05:34:31.797Z,0.00
2023-02-11T05:35:31.950Z,0.00
2023-02-11T05:36:33.482Z,0.00
2023-02-11T05:37:32.015Z,0.00
2023-02-11T05:38:32.008Z,0.00
2023-02-11T05:39:31.898Z,0.00
2023-02-11T05:40:31.905Z,0.00
2023-02-11T05:41:31.753Z,0.00
2023-02-11T05:42:31.857Z,0.00
2023-02-11T05:43:31.984Z,0.00
2023-02-11T05:44:31.892Z,0.00
2023-02-11T05:45:31.817Z,0.00
2023-02-11T05:46:31.882Z,0.00
2023-02-11T05:47:31.898Z,0.00
2023-02-11T05:48:31.906Z,0.00
2023-02-11T05:49:31.922Z,0.00
2023-02-11T05:50:31.827Z,0.00
2023-02-11T05:51:31.820Z,0.00
2023-02-11T05:52:31.744Z,0.00
2023-02-11T05:53:31.746Z,0.00
2023-02-11T05:54:31.814Z,0.00
2023-02-11T05:55:31.736Z,0.00
2023-02-11T05:56:31.743Z,0.00
2023-02-11T05:57:31.771Z,0.00
2023-02-11T05:58:31.778Z,0.00
2023-02-11T05:59:31.854Z,0.00
2023-02-11T06:00:31.754Z,0.00
2023-02-11T06:01:31.713Z,0.00
2023-02-11T06:02:31.685Z,0.00
2023-02-11T06:03:31.758Z,0.00
2023-02-11T06:04:31.567Z,0.00
2023-02-11T06:05:31.711Z,0.00
2023-02-11T06:06:31.767Z,0.00
2023-02-11T06:07:31.454Z,0.00
2023-02-11T06:08:31.631Z,0.00
2023-02-11T06:09:31.547Z,0.00
2023-02-11T06:10:31.629Z,0.00
2023-02-11T06:11:31.562Z,0.00
2023-02-11T06:12:31.421Z,0.00
2023-02-11T06:13:31.585Z,0.00
2023-02-11T06:14:31.534Z,0.00
2023-02-11T06:15:31.637Z,0.00
2023-02-11T06:16:31.646Z,0.00
2023-02-11T06:17:31.360Z,0.00
2023-02-11T06:18:31.486Z,0.00
2023-02-11T06:19:31.525Z,1.00
2023-02-11T06:20:31.559Z,1.00
2023-02-11T06:21:42.911Z,1.00
2023-02-11T06:22:31.464Z,0.00
2023-02-11T06:23:31.307Z,0.00
2023-02-11T06:24:51.306Z,2.00
2023-02-11T06:25:31.227Z,1.00
2023-02-11T06:26:31.321Z,0.00
2023-02-11T06:27:31.251Z,1.00
2023-02-11T06:28:31.475Z,1.00
2023-02-11T06:29:31.427Z,4.00
2023-02-11T06:30:31.413Z,5.00
2023-02-11T06:31:31.524Z,2.00
2023-02-11T06:32:47.147Z,6.00
2023-02-11T06:33:31.358Z,6.00
2023-02-11T06:34:31.462Z,8.00
2023-02-11T06:35:31.321Z,10.00
2023-02-11T06:36:31.333Z,8.00
2023-02-11T06:37:31.427Z,11.00
2023-02-11T06:38:31.275Z,27.00
2023-02-11T06:39:31.297Z,25.00
2023-02-11T06:40:31.303Z,27.00
2023-02-11T06:41:31.396Z,34.00
2023-02-11T06:42:31.175Z,37.00
2023-02-11T06:43:31.211Z,37.00
2023-02-11T06:44:31.221Z,57.00
2023-02-11T06:45:31.263Z,49.00
2023-02-11T06:46:31.321Z,53.00
2023-02-11T06:47:31.150Z,73.00
2023-02-11T06:48:31.277Z,58.00
2023-02-11T06:49:31.173Z,82.00
2023-02-11T06:50:31.175Z,86.00
2023-02-11T06:51:31.113Z,89.00
2023-02-11T06:52:31.218Z,115.00
2023-02-11T06:53:31.144Z,136.00
2023-02-11T06:54:31.171Z,166.00
2023-02-11T06:55:31.174Z,128.00
2023-02-11T06:56:31.106Z,167.00
2023-02-11T06:57:31.105Z,143.00
2023-02-11T06:58:32.186Z,220.00
2023-02-11T06:59:30.893Z,256.00
2023-02-11T07:00:30.958Z,338.00
2023-02-11T07:01:31.060Z,254.00
2023-02-11T07:02:31.086Z,233.00
2023-02-11T07:03:31.035Z,238.00
2023-02-11T07:04:31.109Z,307.00
2023-02-11T07:05:31.018Z,270.00
2023-02-11T07:06:31.023Z,417.00
2023-02-11T07:07:33.911Z,398.00
2023-02-11T07:08:30.940Z,439.00
2023-02-11T07:09:30.949Z,345.00
2023-02-11T07:10:31.038Z,401.00
2023-02-11T07:11:30.966Z,323.00
2023-02-11T07:12:31.057Z,393.00
2023-02-11T07:13:30.992Z,429.00
2023-02-11T07:14:30.991Z,506.00
2023-02-11T07:15:30.916Z,408.00
2023-02-11T07:16:31.046Z,499.00
2023-02-11T07:17:30.927Z,483.00
2023-02-11T07:18:30.935Z,460.00
2023-02-11T07:19:30.941Z,458.00
2023-02-11T07:20:30.876Z,522.00
2023-02-11T07:21:30.961Z,465.00
2023-02-11T07:22:30.902Z,428.00
2023-02-11T07:23:30.893Z,517.00
2023-02-11T07:24:30.617Z,523.00
2023-02-11T07:25:30.863Z,540.00
2023-02-11T07:26:30.848Z,589.00
2023-02-11T07:27:30.845Z,509.00
2023-02-11T07:28:30.879Z,610.00
2023-02-11T07:29:30.802Z,601.00
2023-02-11T07:30:30.781Z,619.00
2023-02-11T07:31:30.896Z,613.00
2023-02-11T07:32:30.595Z,884.00
2023-02-11T07:33:30.735Z,693.00
2023-02-11T07:34:30.798Z,745.00
2023-02-11T07:35:30.768Z,843.00
2023-02-11T07:36:30.760Z,871.00
2023-02-11T07:37:30.576Z,707.00
2023-02-11T07:38:30.608Z,833.00
2023-02-11T07:39:30.688Z,871.00
2023-02-11T07:40:30.573Z,691.00
2023-02-11T07:41:30.669Z,896.00
2023-02-11T07:42:30.435Z,747.00
2023-02-11T07:43:30.439Z,834.00
2023-02-11T07:44:30.732Z,736.00
2023-02-11T07:45:30.461Z,807.00
2023-02-11T07:46:30.639Z,1035.00
2023-02-11T07:47:30.447Z,930.00
2023-02-11T07:48:30.535Z,987.00
2023-02-11T07:49:30.397Z,911.00
2023-02-11T07:50:30.449Z,756.00
2023-02-11T07:51:30.416Z,842.00
2023-02-11T07:52:30.547Z,974.00
2023-02-11T07:53:30.361Z,895.00
2023-02-11T07:54:30.432Z,817.00
2023-02-11T07:55:30.597Z,1040.00
2023-02-11T07:56:30.337Z,1064.00
2023-02-11T07:57:30.516Z,1034.00
2023-02-11T07:58:30.294Z,1102.00
2023-02-11T07:59:30.320Z,1207.00
2023-02-11T08:00:30.568Z,1040.00
2023-02-11T08:01:30.294Z,969.00
2023-02-11T08:02:30.322Z,878.00
2023-02-11T08:03:30.424Z,778.00
2023-02-11T08:04:30.489Z,932.00
2023-02-11T08:05:30.477Z,909.00
2023-02-11T08:06:30.550Z,1101.00
2023-02-11T08:07:30.447Z,1064.00
2023-02-11T08:08:30.432Z,991.00
2023-02-11T08:09:32.774Z,846.00
2023-02-11T08:10:30.385Z,999.00
2023-02-11T08:11:30.371Z,881.00
2023-02-11T08:12:30.443Z,926.00
2023-02-11T08:13:30.338Z,943.00
2023-02-11T08:14:30.313Z,1311.00
2023-02-11T08:15:30.374Z,1370.00
2023-02-11T08:16:30.429Z,1135.00
2023-02-11T08:17:30.403Z,1336.00
2023-02-11T08:18:30.306Z,1211.00
2023-02-11T08:19:30.281Z,1278.00
2023-02-11T08:20:30.254Z,1231.00
2023-02-11T08:21:30.240Z,1329.00
2023-02-11T08:22:30.372Z,1215.00
2023-02-11T08:23:30.268Z,975.00
2023-02-11T08:24:30.325Z,1383.00
2023-02-11T08:25:30.221Z,1227.00
2023-02-11T08:26:30.189Z,1243.00
2023-02-11T08:27:30.245Z,1005.00
2023-02-11T08:28:30.161Z,1035.00
2023-02-11T08:29:30.334Z,1070.00
2023-02-11T08:30:30.152Z,1290.00
2023-02-11T08:31:30.256Z,1277.00
2023-02-11T08:32:30.140Z,1157.00
2023-02-11T08:33:30.193Z,1356.00
2023-02-11T08:34:30.164Z,1373.00
2023-02-11T08:35:30.122Z,1213.00
2023-02-11T08:36:30.024Z,1386.00
2023-02-11T08:37:32.760Z,1453.00
2023-02-11T08:38:30.028Z,1286.00
2023-02-11T08:39:30.189Z,1299.00
2023-02-11T08:40:30.024Z,1342.00
2023-02-11T08:41:30.099Z,1647.00
2023-02-11T08:42:30.056Z,1584.00
2023-02-11T08:43:30.017Z,1372.00
2023-02-11T08:44:30.149Z,1199.00
2023-02-11T08:45:30.001Z,1137.00
2023-02-11T08:46:30.011Z,989.00
2023-02-11T08:47:29.901Z,1342.00
2023-02-11T08:48:30.047Z,1240.00
2023-02-11T08:49:30.079Z,1296.00
2023-02-11T08:50:30.013Z,1196.00
2023-02-11T08:51:29.949Z,1206.00
2023-02-11T08:52:29.977Z,1225.00
2023-02-11T08:53:29.958Z,1447.00
2023-02-11T08:54:30.040Z,1206.00
2023-02-11T08:55:30.035Z,1081.00
2023-02-11T08:56:29.882Z,1071.00
2023-02-11T08:57:29.911Z,1176.00
2023-02-11T08:58:29.851Z,1330.00
2023-02-11T08:59:29.813Z,1242.00
2023-02-11T09:00:29.881Z,1103.00
2023-02-11T09:01:29.921Z,1321.00
2023-02-11T09:02:29.887Z,1315.00
2023-02-11T09:03:29.849Z,1227.00
2023-02-11T09:04:29.866Z,1466.00
2023-02-11T09:05:29.818Z,1523.00
2023-02-11T09:06:29.849Z,1422.00
2023-02-11T09:07:29.924Z,1324.00
2023-02-11T09:08:29.837Z,1243.00
2023-02-11T09:09:29.824Z,1134.00
2023-02-11T09:10:29.890Z,1105.00
2023-02-11T09:11:29.810Z,1337.00
2023-02-11T09:12:29.828Z,1242.00
2023-02-11T09:13:29.554Z,1160.00
2023-02-11T09:14:29.567Z,1127.00
2023-02-11T09:15:29.529Z,998.00
2023-02-11T09:16:29.840Z,1171.00
2023-02-11T09:17:29.780Z,1077.00
2023-02-11T09:18:29.707Z,995.00
2023-02-11T09:19:29.804Z,882.00
2023-02-11T09:20:29.716Z,1045.00
2023-02-11T09:21:29.709Z,981.00
2023-02-11T09:22:29.676Z,1052.00
2023-02-11T09:23:29.470Z,1223.00
2023-02-11T09:24:29.447Z,1105.00
2023-02-11T09:25:29.669Z,970.00
2023-02-11T09:26:29.634Z,1057.00
2023-02-11T09:27:29.661Z,989.00
2023-02-11T09:28:29.684Z,1138.00
2023-02-11T09:29:29.759Z,1114.00
2023-02-11T09:30:29.591Z,907.00
2023-02-11T09:31:29.697Z,1135.00
2023-02-11T09:32:29.553Z,1242.00
2023-02-11T09:33:29.573Z,1402.00
2023-02-11T09:34:29.343Z,1345.00
2023-02-11T09:35:29.319Z,1267.00
2023-02-11T09:36:29.510Z,1329.00
2023-02-11T09:37:29.495Z,1167.00
2023-02-11T09:38:29.500Z,1383.00
2023-02-11T09:39:29.576Z,1435.00
2023-02-11T09:40:29.483Z,1450.00
2023-02-11T09:41:29.494Z,1418.00
2023-02-11T09:42:29.482Z,1328.00
2023-02-11T09:43:29.465Z,1209.00
2023-02-11T09:44:29.543Z,1301.00
2023-02-11T09:45:29.458Z,1279.00
2023-02-11T09:46:29.534Z,1466.00
2023-02-11T09:47:29.400Z,1482.00
2023-02-11T09:48:29.191Z,1204.00
2023-02-11T09:49:29.240Z,1380.00
2023-02-11T09:50:29.238Z,1541.00
2023-02-11T09:51:29.224Z,1915.00
2023-02-11T09:52:29.150Z,1595.00
2023-02-11T09:53:29.145Z,1527.00
2023-02-11T09:54:29.140Z,1323.00
2023-02-11T09:55:29.186Z,1634.00
2023-02-11T09:56:29.142Z,1498.00
2023-02-11T09:57:29.426Z,1367.00
2023-02-11T09:58:29.107Z,1323.00
2023-02-11T09:59:29.086Z,1235.00
2023-02-11T10:00:29.102Z,1076.00
2023-02-11T10:01:29.132Z,1036.00
2023-02-11T10:02:29.263Z,1244.00
2023-02-11T10:03:29.074Z,1052.00
2023-02-11T10:04:29.076Z,1044.00
2023-02-11T10:05:29.216Z,1371.00
2023-02-11T10:06:29.269Z,1093.00
2023-02-11T10:07:29.303Z,1114.00
2023-02-11T10:08:29.172Z,1116.00
2023-02-11T10:09:29.087Z,1016.00
2023-02-11T10:10:28.993Z,1036.00
2023-02-11T10:11:31.956Z,1120.00
2023-02-11T10:12:29.137Z,1209.00
2023-02-11T10:13:29.143Z,1146.00
2023-02-11T10:14:29.125Z,958.00
2023-02-11T10:15:29.275Z,1240.00
2023-02-11T10:16:29.105Z,1112.00
2023-02-11T10:17:29.105Z,1005.00
2023-02-11T10:18:29.093Z,1518.00
2023-02-11T10:19:29.076Z,1214.00
2023-02-11T10:20:29.171Z,1359.00
2023-02-11T10:21:29.030Z,1140.00
2023-02-11T10:22:28.990Z,1215.00
2023-02-11T10:23:28.937Z,1403.00
2023-02-11T10:24:28.840Z,1468.00
2023-02-11T10:25:28.917Z,1351.00
2023-02-11T10:26:28.832Z,1228.00
2023-02-11T10:27:28.907Z,1441.00
2023-02-11T10:28:28.942Z,1375.00
2023-02-11T10:29:28.934Z,1601.00
2023-02-11T10:30:28.990Z,1474.00
2023-02-11T10:31:28.895Z,1246.00
2023-02-11T10:32:28.775Z,1403.00
2023-02-11T10:33:28.810Z,1409.00
2023-02-11T10:34:28.701Z,1410.00
2023-02-11T10:35:28.888Z,1361.00
2023-02-11T10:36:28.733Z,1165.00
2023-02-11T10:37:28.732Z,1054.00
2023-02-11T10:38:28.782Z,1071.00
2023-02-11T10:39:28.840Z,974.00
2023-02-11T10:40:28.700Z,1147.00
2023-02-11T10:41:28.855Z,1136.00
2023-02-11T10:42:28.845Z,1043.00
2023-02-11T10:43:28.840Z,973.00
2023-02-11T10:44:28.901Z,1075.00
2023-02-11T10:45:28.765Z,1059.00
2023-02-11T10:46:28.801Z,975.00
2023-02-11T10:47:28.575Z,1062.00
2023-02-11T10:48:28.747Z,929.00
2023-02-11T10:49:28.739Z,1158.00
2023-02-11T10:50:28.570Z,1149.00
2023-02-11T10:51:28.707Z,1148.00
2023-02-11T10:52:28.582Z,1501.00
2023-02-11T10:53:28.564Z,1625.00
2023-02-11T10:54:28.571Z,1778.00
2023-02-11T10:55:28.588Z,1647.00
2023-02-11T10:56:28.530Z,1593.00
2023-02-11T10:57:28.513Z,1838.00
2023-02-11T10:58:28.554Z,1577.00
2023-02-11T10:59:28.500Z,1475.00
2023-02-11T11:00:28.521Z,1653.00
2023-02-11T11:01:28.477Z,1708.00
2023-02-11T11:02:28.509Z,2065.00
2023-02-11T11:03:28.439Z,1452.00
2023-02-11T11:04:28.463Z,2648.00
2023-02-11T11:05:28.584Z,2391.00
2023-02-11T11:06:28.407Z,2419.00
2023-02-11T11:07:28.384Z,2025.00
2023-02-11T11:08:28.413Z,1959.00
2023-02-11T11:09:28.516Z,2854.00
2023-02-11T11:10:28.495Z,2406.00
2023-02-11T11:11:28.575Z,2238.00
2023-02-11T11:12:28.384Z,3633.00
2023-02-11T11:13:28.338Z,2860.00
2023-02-11T11:14:28.368Z,3565.00
2023-02-11T11:15:28.398Z,2850.00
2023-02-11T11:16:28.402Z,3919.00
2023-02-11T11:17:28.431Z,2814.00
2023-02-11T11:18:28.311Z,3678.00
2023-02-11T11:19:28.314Z,3926.00
2023-02-11T11:20:28.527Z,3272.00
2023-02-11T11:21:28.294Z,3389.00
2023-02-11T11:22:28.298Z,3827.00
2023-02-11T11:23:28.238Z,4347.00
2023-02-11T11:24:28.233Z,3216.00
2023-02-11T11:25:28.221Z,3913.00
2023-02-11T11:26:28.251Z,3186.00
2023-02-11T11:27:28.433Z,3597.00
2023-02-11T11:28:28.349Z,2939.00
2023-02-11T11:29:28.398Z,2836.00
2023-02-11T11:30:28.241Z,3834.00
2023-02-11T11:31:28.300Z,3521.00
2023-02-11T11:32:28.348Z,3145.00
2023-02-11T11:33:28.341Z,3326.00
2023-02-11T11:34:28.338Z,2969.00
2023-02-11T11:35:28.155Z,2707.00
2023-02-11T11:36:28.151Z,3033.00
2023-02-11T11:37:28.182Z,2705.00
2023-02-11T11:38:28.085Z,2400.00
2023-02-11T11:39:28.181Z,2932.00
2023-02-11T11:40:28.168Z,2982.00
2023-02-11T11:41:28.044Z,2227.00
2023-02-11T11:42:28.320Z,3342.00
2023-02-11T11:43:28.176Z,3466.00
2023-02-11T11:44:28.175Z,3665.00
2023-02-11T11:45:28.165Z,2899.00
2023-02-11T11:46:28.246Z,3004.00
2023-02-11T11:47:28.299Z,2587.00
2023-02-11T11:48:28.146Z,4105.00
2023-02-11T11:49:27.960Z,3287.00
2023-02-11T11:50:28.058Z,2057.00
2023-02-11T11:51:27.997Z,3568.00
2023-02-11T11:52:28.028Z,3867.00
2023-02-11T11:53:27.922Z,3801.00
2023-02-11T11:54:27.911Z,2977.00
2023-02-11T11:55:28.171Z,2821.00
2023-02-11T11:56:28.123Z,4120.00
2023-02-11T11:57:27.875Z,3687.00
2023-02-11T11:58:27.894Z,2722.00
2023-02-11T11:59:28.080Z,3460.00
2023-02-11T12:00:27.838Z,3102.00
2023-02-11T12:01:28.107Z,2804.00
2023-02-11T12:02:27.913Z,3663.00
2023-02-11T12:03:28.067Z,2854.00
2023-02-11T12:04:27.872Z,4356.00
2023-02-11T12:05:27.968Z,3729.00
2023-02-11T12:06:27.785Z,3463.00
2023-02-11T12:07:27.757Z,2425.00
2023-02-11T12:08:27.764Z,3191.00
2023-02-11T12:09:27.819Z,2502.00
2023-02-11T12:10:27.770Z,2943.00
2023-02-11T12:11:27.796Z,4430.00
2023-02-11T12:12:27.767Z,3643.00
2023-02-11T12:13:27.915Z,3151.00
2023-02-11T12:14:27.924Z,2134.00
2023-02-11T12:15:27.765Z,3729.00
2023-02-11T12:16:27.941Z,3177.00
2023-02-11T12:17:27.711Z,3162.00
2023-02-11T12:18:27.661Z,3115.00
2023-02-11T12:19:27.817Z,3788.00
2023-02-11T12:20:27.644Z,2997.00
2023-02-11T12:21:27.897Z,2755.00
2023-02-11T12:22:27.683Z,2265.00
2023-02-11T12:23:27.614Z,3094.00
2023-02-11T12:24:27.893Z,2512.00
2023-02-11T12:25:27.610Z,3115.00
2023-02-11T12:26:27.710Z,3308.00
2023-02-11T12:27:27.615Z,3355.00
2023-02-11T12:28:27.668Z,3040.00
2023-02-11T12:29:27.556Z,2586.00
2023-02-11T12:30:27.779Z,3152.00
2023-02-11T12:31:27.671Z,2824.00
2023-02-11T12:32:27.526Z,2650.00
2023-02-11T12:33:27.701Z,2793.00
2023-02-11T12:34:27.562Z,2913.00
2023-02-11T12:35:27.500Z,2323.00
2023-02-11T12:36:27.562Z,2959.00
2023-02-11T12:37:27.552Z,3389.00
2023-02-11T12:38:27.650Z,2554.00
2023-02-11T12:39:27.675Z,2823.00
2023-02-11T12:40:27.733Z,2639.00
2023-02-11T12:41:27.639Z,3571.00
2023-02-11T12:42:27.628Z,2682.00
2023-02-11T12:43:27.616Z,2896.00
2023-02-11T12:44:27.682Z,3229.00
2023-02-11T12:45:27.615Z,3021.00